sim
Sign-in with your pilot id or email,
or register
Callsign
Passwort

Schedule Details

Flight Number: RYR9974 (2)
Departure: Bologna Guglielmo Marconi Airport (LIPE) at 14:15
Arrival: Thessaloniki International Airport (LGTS) at 16:10
Route: Ryanair Passenger Schedule. Enter filed route here before submitting Pirep.

Weather Information
Getting current METAR information for LIPE 211520Z 34004KT 290V360 6000 NSC 14/05 Q1026
Getting current METAR information for LGTS 211520Z 35006KT CAVOK 16/00 Q1021 NOSIG

Schedule Frequency

Route Map